sensor_id;sensor_type;location;lat;lon;timestamp;P1;durP1;ratioP1;P2;durP2;ratioP2
1294;SDS011;640;48.310;11.728;2022-10-15T00:01:08;1.92;;;1.30;;
1294;SDS011;640;48.310;11.728;2022-10-15T00:03:39;3.70;;;1.23;;
1294;SDS011;640;48.310;11.728;2022-10-15T00:06:09;5.50;;;1.40;;
1294;SDS011;640;48.310;11.728;2022-10-15T00:08:38;2.08;;;1.48;;
1294;SDS011;640;48.310;11.728;2022-10-15T00:11:07;3.80;;;1.60;;
1294;SDS011;640;48.310;11.728;2022-10-15T00:13:37;1.65;;;1.30;;
1294;SDS011;640;48.310;11.728;2022-10-15T00:16:06;3.10;;;1.40;;
1294;SDS011;640;48.310;11.728;2022-10-15T00:18:36;2.38;;;1.27;;
1294;SDS011;640;48.310;11.728;2022-10-15T00:21:05;3.97;;;1.30;;
1294;SDS011;640;48.310;11.728;2022-10-15T00:23:34;2.05;;;1.30;;
1294;SDS011;640;48.310;11.728;2022-10-15T00:26:04;3.90;;;1.10;;
1294;SDS011;640;48.310;11.728;2022-10-15T00:31:02;1.98;;;1.17;;
1294;SDS011;640;48.310;11.728;2022-10-15T00:33:33;2.70;;;1.10;;
1294;SDS011;640;48.310;11.728;2022-10-15T00:36:04;3.28;;;1.20;;
1294;SDS011;640;48.310;11.728;2022-10-15T00:38:35;2.67;;;1.20;;
1294;SDS011;640;48.310;11.728;2022-10-15T00:41:05;2.67;;;1.08;;
1294;SDS011;640;48.310;11.728;2022-10-15T00:43:38;3.05;;;1.30;;
1294;SDS011;640;48.310;11.728;2022-10-15T00:46:14;1.35;;;1.10;;
1294;SDS011;640;48.310;11.728;2022-10-15T00:48:45;2.97;;;1.20;;
1294;SDS011;640;48.310;11.728;2022-10-15T00:51:17;2.45;;;1.10;;
1294;SDS011;640;48.310;11.728;2022-10-15T00:53:46;1.60;;;1.20;;
1294;SDS011;640;48.310;11.728;2022-10-15T00:56:16;2.53;;;1.15;;
1294;SDS011;640;48.310;11.728;2022-10-15T00:58:45;3.28;;;1.02;;
1294;SDS011;640;48.310;11.728;2022-10-15T01:01:13;1.20;;;1.10;;
1294;SDS011;640;48.310;11.728;2022-10-15T01:03:41;2.40;;;1.13;;
1294;SDS011;640;48.310;11.728;2022-10-15T01:06:10;2.92;;;1.23;;
1294;SDS011;640;48.310;11.728;2022-10-15T01:08:40;2.22;;;0.98;;
1294;SDS011;640;48.310;11.728;2022-10-15T01:11:11;3.03;;;1.20;;
1294;SDS011;640;48.310;11.728;2022-10-15T01:13:48;2.17;;;1.15;;
1294;SDS011;640;48.310;11.728;2022-10-15T01:16:23;2.13;;;1.10;;
1294;SDS011;640;48.310;11.728;2022-10-15T01:18:56;1.33;;;1.05;;
1294;SDS011;640;48.310;11.728;2022-10-15T01:21:28;1.83;;;1.08;;
1294;SDS011;640;48.310;11.728;2022-10-15T01:30:02;3.40;;;1.45;;
1294;SDS011;640;48.310;11.728;2022-10-15T01:32:41;2.42;;;1.60;;
1294;SDS011;640;48.310;11.728;2022-10-15T01:35:17;3.28;;;1.80;;
1294;SDS011;640;48.310;11.728;2022-10-15T01:37:50;4.22;;;1.90;;
1294;SDS011;640;48.310;11.728;2022-10-15T01:40:22;3.42;;;1.90;;
1294;SDS011;640;48.310;11.728;2022-10-15T01:42:55;3.72;;;2.00;;
1294;SDS011;640;48.310;11.728;2022-10-15T01:45:28;3.63;;;2.00;;
1294;SDS011;640;48.310;11.728;2022-10-15T01:48:01;3.70;;;1.85;;
1294;SDS011;640;48.310;11.728;2022-10-15T01:50:30;2.45;;;1.90;;
1294;SDS011;640;48.310;11.728;2022-10-15T01:53:00;3.70;;;1.50;;
1294;SDS011;640;48.310;11.728;2022-10-15T01:55:30;1.38;;;1.13;;
1294;SDS011;640;48.310;11.728;2022-10-15T01:57:58;1.02;;;0.93;;
1294;SDS011;640;48.310;11.728;2022-10-15T02:00:29;2.35;;;1.20;;
1294;SDS011;640;48.310;11.728;2022-10-15T02:02:58;3.03;;;1.20;;
1294;SDS011;640;48.310;11.728;2022-10-15T02:05:28;1.67;;;1.15;;
1294;SDS011;640;48.310;11.728;2022-10-15T02:07:59;1.92;;;1.20;;
1294;SDS011;640;48.310;11.728;2022-10-15T02:10:36;2.05;;;1.08;;
1294;SDS011;640;48.310;11.728;2022-10-15T02:13:10;4.60;;;1.20;;
1294;SDS011;640;48.310;11.728;2022-10-15T02:15:44;3.50;;;1.20;;
1294;SDS011;640;48.310;11.728;2022-10-15T02:18:15;1.77;;;1.10;;
1294;SDS011;640;48.310;11.728;2022-10-15T02:20:50;1.45;;;1.17;;
1294;SDS011;640;48.310;11.728;2022-10-15T02:23:23;1.23;;;0.90;;
1294;SDS011;640;48.310;11.728;2022-10-15T02:25:54;3.17;;;1.20;;
1294;SDS011;640;48.310;11.728;2022-10-15T02:28:23;1.60;;;1.08;;
1294;SDS011;640;48.310;11.728;2022-10-15T02:30:54;2.30;;;0.98;;
1294;SDS011;640;48.310;11.728;2022-10-15T02:33:24;1.85;;;0.93;;
1294;SDS011;640;48.310;11.728;2022-10-15T02:35:53;1.63;;;1.00;;
1294;SDS011;640;48.310;11.728;2022-10-15T02:38:22;1.23;;;0.95;;
1294;SDS011;640;48.310;11.728;2022-10-15T02:40:51;2.08;;;1.17;;
1294;SDS011;640;48.310;11.728;2022-10-15T02:43:20;2.92;;;1.20;;
1294;SDS011;640;48.310;11.728;2022-10-15T02:45:48;3.30;;;1.27;;
1294;SDS011;640;48.310;11.728;2022-10-15T02:48:18;2.10;;;1.10;;
1294;SDS011;640;48.310;11.728;2022-10-15T02:50:46;1.88;;;1.17;;
1294;SDS011;640;48.310;11.728;2022-10-15T02:53:14;3.38;;;1.30;;
1294;SDS011;640;48.310;11.728;2022-10-15T02:55:43;3.05;;;1.15;;
1294;SDS011;640;48.310;11.728;2022-10-15T02:58:11;1.95;;;1.10;;
1294;SDS011;640;48.310;11.728;2022-10-15T03:00:39;1.85;;;1.00;;
1294;SDS011;640;48.310;11.728;2022-10-15T03:03:08;2.03;;;1.05;;
1294;SDS011;640;48.310;11.728;2022-10-15T03:05:38;3.17;;;1.00;;
1294;SDS011;640;48.310;11.728;2022-10-15T03:08:07;2.50;;;0.93;;
1294;SDS011;640;48.310;11.728;2022-10-15T03:10:35;2.05;;;1.00;;
1294;SDS011;640;48.310;11.728;2022-10-15T03:13:03;1.45;;;1.10;;
1294;SDS011;640;48.310;11.728;2022-10-15T03:15:32;3.40;;;1.00;;
1294;SDS011;640;48.310;11.728;2022-10-15T03:18:00;1.05;;;0.95;;
1294;SDS011;640;48.310;11.728;2022-10-15T03:20:28;1.45;;;1.00;;
1294;SDS011;640;48.310;11.728;2022-10-15T03:22:58;1.50;;;1.00;;
1294;SDS011;640;48.310;11.728;2022-10-15T03:25:26;2.65;;;1.30;;
1294;SDS011;640;48.310;11.728;2022-10-15T03:27:54;1.63;;;1.00;;
1294;SDS011;640;48.310;11.728;2022-10-15T03:30:23;4.18;;;1.10;;
1294;SDS011;640;48.310;11.728;2022-10-15T03:32:51;3.13;;;1.02;;
1294;SDS011;640;48.310;11.728;2022-10-15T03:35:19;1.30;;;1.20;;
1294;SDS011;640;48.310;11.728;2022-10-15T03:37:47;3.72;;;1.00;;
1294;SDS011;640;48.310;11.728;2022-10-15T03:40:17;1.52;;;1.00;;
1294;SDS011;640;48.310;11.728;2022-10-15T03:42:48;2.25;;;0.95;;
1294;SDS011;640;48.310;11.728;2022-10-15T03:45:17;1.13;;;1.00;;
1294;SDS011;640;48.310;11.728;2022-10-15T03:47:45;1.52;;;1.02;;
1294;SDS011;640;48.310;11.728;2022-10-15T03:50:14;4.07;;;1.10;;
1294;SDS011;640;48.310;11.728;2022-10-15T03:52:42;1.33;;;0.80;;
1294;SDS011;640;48.310;11.728;2022-10-15T03:55:11;1.73;;;1.10;;
1294;SDS011;640;48.310;11.728;2022-10-15T03:57:41;2.15;;;0.85;;
1294;SDS011;640;48.310;11.728;2022-10-15T04:00:11;1.75;;;0.80;;
1294;SDS011;640;48.310;11.728;2022-10-15T04:02:40;1.13;;;1.00;;
1294;SDS011;640;48.310;11.728;2022-10-15T04:05:08;2.55;;;1.00;;
1294;SDS011;640;48.310;11.728;2022-10-15T04:07:36;2.42;;;1.00;;
1294;SDS011;640;48.310;11.728;2022-10-15T04:10:05;1.80;;;0.95;;
1294;SDS011;640;48.310;11.728;2022-10-15T04:12:34;2.35;;;0.93;;
1294;SDS011;640;48.310;11.728;2022-10-15T04:15:04;2.03;;;0.98;;
1294;SDS011;640;48.310;11.728;2022-10-15T04:17:33;1.95;;;0.95;;
1294;SDS011;640;48.310;11.728;2022-10-15T04:20:01;2.25;;;0.77;;
1294;SDS011;640;48.310;11.728;2022-10-15T04:22:30;0.80;;;0.80;;
1294;SDS011;640;48.310;11.728;2022-10-15T04:24:58;0.98;;;0.80;;
1294;SDS011;640;48.310;11.728;2022-10-15T04:27:27;1.77;;;0.80;;
1294;SDS011;640;48.310;11.728;2022-10-15T04:29:55;3.63;;;0.82;;
1294;SDS011;640;48.310;11.728;2022-10-15T04:32:25;1.35;;;0.82;;
1294;SDS011;640;48.310;11.728;2022-10-15T04:34:53;1.52;;;0.80;;
1294;SDS011;640;48.310;11.728;2022-10-15T04:37:21;0.70;;;0.70;;
1294;SDS011;640;48.310;11.728;2022-10-15T04:39:50;1.60;;;0.90;;
1294;SDS011;640;48.310;11.728;2022-10-15T04:42:18;2.20;;;0.90;;
1294;SDS011;640;48.310;11.728;2022-10-15T04:44:46;1.00;;;0.77;;
1294;SDS011;640;48.310;11.728;2022-10-15T04:47:14;2.40;;;0.82;;
1294;SDS011;640;48.310;11.728;2022-10-15T04:49:44;2.88;;;1.05;;
1294;SDS011;640;48.310;11.728;2022-10-15T04:52:12;1.67;;;0.83;;
1294;SDS011;640;48.310;11.728;2022-10-15T04:54:41;2.83;;;0.90;;
1294;SDS011;640;48.310;11.728;2022-10-15T04:57:09;1.33;;;0.70;;
1294;SDS011;640;48.310;11.728;2022-10-15T04:59:37;1.27;;;0.80;;
1294;SDS011;640;48.310;11.728;2022-10-15T05:02:05;1.98;;;0.77;;
1294;SDS011;640;48.310;11.728;2022-10-15T05:04:34;0.88;;;0.70;;
1294;SDS011;640;48.310;11.728;2022-10-15T05:07:03;1.10;;;0.75;;
1294;SDS011;640;48.310;11.728;2022-10-15T05:09:32;2.70;;;0.75;;
1294;SDS011;640;48.310;11.728;2022-10-15T05:12:03;3.50;;;1.52;;
1294;SDS011;640;48.310;11.728;2022-10-15T05:14:31;0.60;;;0.60;;
1294;SDS011;640;48.310;11.728;2022-10-15T05:17:01;3.53;;;0.80;;
1294;SDS011;640;48.310;11.728;2022-10-15T05:19:30;1.10;;;0.80;;
1294;SDS011;640;48.310;11.728;2022-10-15T05:21:58;1.30;;;0.65;;
1294;SDS011;640;48.310;11.728;2022-10-15T05:24:27;1.25;;;0.70;;
1294;SDS011;640;48.310;11.728;2022-10-15T05:26:56;1.02;;;0.70;;
1294;SDS011;640;48.310;11.728;2022-10-15T05:29:24;0.60;;;0.50;;
1294;SDS011;640;48.310;11.728;2022-10-15T05:31:52;2.38;;;0.75;;
1294;SDS011;640;48.310;11.728;2022-10-15T05:34:21;0.68;;;0.60;;
1294;SDS011;640;48.310;11.728;2022-10-15T05:36:49;1.35;;;0.60;;
1294;SDS011;640;48.310;11.728;2022-10-15T05:39:17;1.05;;;0.60;;
1294;SDS011;640;48.310;11.728;2022-10-15T05:41:47;0.60;;;0.60;;
1294;SDS011;640;48.310;11.728;2022-10-15T05:44:15;1.25;;;0.70;;
1294;SDS011;640;48.310;11.728;2022-10-15T05:46:44;1.33;;;0.60;;
1294;SDS011;640;48.310;11.728;2022-10-15T05:49:12;0.50;;;0.50;;
1294;SDS011;640;48.310;11.728;2022-10-15T05:51:40;0.85;;;0.50;;
1294;SDS011;640;48.310;11.728;2022-10-15T05:54:09;0.50;;;0.50;;
1294;SDS011;640;48.310;11.728;2022-10-15T05:56:37;0.50;;;0.50;;
1294;SDS011;640;48.310;11.728;2022-10-15T05:59:07;1.67;;;0.57;;
1294;SDS011;640;48.310;11.728;2022-10-15T06:01:35;0.55;;;0.45;;
1294;SDS011;640;48.310;11.728;2022-10-15T06:04:03;0.73;;;0.70;;
1294;SDS011;640;48.310;11.728;2022-10-15T06:06:32;0.70;;;0.60;;
1294;SDS011;640;48.310;11.728;2022-10-15T06:09:00;1.25;;;0.65;;
1294;SDS011;640;48.310;11.728;2022-10-15T06:11:28;0.50;;;0.50;;
1294;SDS011;640;48.310;11.728;2022-10-15T06:13:56;0.40;;;0.40;;
1294;SDS011;640;48.310;11.728;2022-10-15T06:16:26;1.10;;;0.70;;
1294;SDS011;640;48.310;11.728;2022-10-15T06:18:54;0.50;;;0.50;;
1294;SDS011;640;48.310;11.728;2022-10-15T06:21:23;0.60;;;0.60;;
1294;SDS011;640;48.310;11.728;2022-10-15T06:23:51;1.25;;;0.60;;
1294;SDS011;640;48.310;11.728;2022-10-15T06:26:19;0.55;;;0.55;;
1294;SDS011;640;48.310;11.728;2022-10-15T06:28:48;0.50;;;0.50;;
1294;SDS011;640;48.310;11.728;2022-10-15T06:31:16;1.20;;;0.60;;
1294;SDS011;640;48.310;11.728;2022-10-15T06:33:46;0.70;;;0.70;;
1294;SDS011;640;48.310;11.728;2022-10-15T06:36:14;0.70;;;0.60;;
1294;SDS011;640;48.310;11.728;2022-10-15T06:38:44;0.82;;;0.70;;
1294;SDS011;640;48.310;11.728;2022-10-15T06:41:13;0.60;;;0.60;;
1294;SDS011;640;48.310;11.728;2022-10-15T06:43:42;1.95;;;0.60;;
1294;SDS011;640;48.310;11.728;2022-10-15T06:46:11;0.52;;;0.50;;
1294;SDS011;640;48.310;11.728;2022-10-15T06:48:40;1.60;;;0.60;;
1294;SDS011;640;48.310;11.728;2022-10-15T06:51:09;1.33;;;0.60;;
1294;SDS011;640;48.310;11.728;2022-10-15T06:53:38;1.17;;;0.55;;
1294;SDS011;640;48.310;11.728;2022-10-15T06:56:08;1.65;;;0.70;;
1294;SDS011;640;48.310;11.728;2022-10-15T06:58:36;0.40;;;0.40;;
1294;SDS011;640;48.310;11.728;2022-10-15T07:01:05;2.45;;;0.60;;
1294;SDS011;640;48.310;11.728;2022-10-15T07:03:34;0.60;;;0.60;;
1294;SDS011;640;48.310;11.728;2022-10-15T07:06:05;0.60;;;0.50;;
1294;SDS011;640;48.310;11.728;2022-10-15T07:08:36;1.60;;;0.60;;
1294;SDS011;640;48.310;11.728;2022-10-15T07:11:05;1.17;;;0.55;;
1294;SDS011;640;48.310;11.728;2022-10-15T07:13:34;1.23;;;0.70;;
1294;SDS011;640;48.310;11.728;2022-10-15T07:16:03;1.00;;;0.60;;
1294;SDS011;640;48.310;11.728;2022-10-15T07:18:32;0.65;;;0.60;;
1294;SDS011;640;48.310;11.728;2022-10-15T07:21:00;0.60;;;0.60;;
1294;SDS011;640;48.310;11.728;2022-10-15T07:23:29;1.05;;;0.65;;
1294;SDS011;640;48.310;11.728;2022-10-15T07:25:59;0.55;;;0.55;;
1294;SDS011;640;48.310;11.728;2022-10-15T07:28:28;0.93;;;0.60;;
1294;SDS011;640;48.310;11.728;2022-10-15T07:30:59;0.52;;;0.50;;
1294;SDS011;640;48.310;11.728;2022-10-15T07:33:28;0.50;;;0.50;;
1294;SDS011;640;48.310;11.728;2022-10-15T07:35:56;0.50;;;0.50;;
1294;SDS011;640;48.310;11.728;2022-10-15T07:38:25;1.00;;;0.50;;
1294;SDS011;640;48.310;11.728;2022-10-15T07:40:56;0.40;;;0.40;;
1294;SDS011;640;48.310;11.728;2022-10-15T07:43:26;0.75;;;0.60;;
1294;SDS011;640;48.310;11.728;2022-10-15T07:45:55;1.33;;;0.57;;
1294;SDS011;640;48.310;11.728;2022-10-15T07:48:23;0.50;;;0.50;;
1294;SDS011;640;48.310;11.728;2022-10-15T07:50:54;3.78;;;0.43;;
1294;SDS011;640;48.310;11.728;2022-10-15T07:53:23;0.95;;;0.50;;
1294;SDS011;640;48.310;11.728;2022-10-15T07:55:52;1.98;;;0.50;;
1294;SDS011;640;48.310;11.728;2022-10-15T07:58:20;0.50;;;0.50;;
1294;SDS011;640;48.310;11.728;2022-10-15T08:00:50;0.32;;;0.32;;
1294;SDS011;640;48.310;11.728;2022-10-15T08:03:18;0.67;;;0.50;;
1294;SDS011;640;48.310;11.728;2022-10-15T08:05:46;0.50;;;0.50;;
1294;SDS011;640;48.310;11.728;2022-10-15T08:08:18;0.40;;;0.40;;
1294;SDS011;640;48.310;11.728;2022-10-15T08:10:47;1.45;;;0.50;;
1294;SDS011;640;48.310;11.728;2022-10-15T08:13:15;0.55;;;0.38;;
1294;SDS011;640;48.310;11.728;2022-10-15T08:15:43;0.40;;;0.40;;
1294;SDS011;640;48.310;11.728;2022-10-15T08:18:13;0.47;;;0.30;;
1294;SDS011;640;48.310;11.728;2022-10-15T08:20:41;1.30;;;0.40;;
1294;SDS011;640;48.310;11.728;2022-10-15T08:23:12;2.40;;;0.30;;
1294;SDS011;640;48.310;11.728;2022-10-15T08:25:42;0.28;;;0.25;;
1294;SDS011;640;48.310;11.728;2022-10-15T08:28:11;0.73;;;0.50;;
1294;SDS011;640;48.310;11.728;2022-10-15T08:30:39;0.80;;;0.50;;
1294;SDS011;640;48.310;11.728;2022-10-15T08:33:08;2.15;;;0.60;;
1294;SDS011;640;48.310;11.728;2022-10-15T08:35:37;0.60;;;0.43;;
1294;SDS011;640;48.310;11.728;2022-10-15T08:38:07;1.50;;;0.60;;
1294;SDS011;640;48.310;11.728;2022-10-15T08:40:45;1.17;;;0.50;;
1294;SDS011;640;48.310;11.728;2022-10-15T08:43:16;1.15;;;0.60;;
1294;SDS011;640;48.310;11.728;2022-10-15T08:45:47;0.50;;;0.50;;
1294;SDS011;640;48.310;11.728;2022-10-15T08:48:17;0.80;;;0.50;;
1294;SDS011;640;48.310;11.728;2022-10-15T08:50:53;1.77;;;0.60;;
1294;SDS011;640;48.310;11.728;2022-10-15T08:53:25;0.60;;;0.60;;
1294;SDS011;640;48.310;11.728;2022-10-15T08:55:54;0.57;;;0.50;;
1294;SDS011;640;48.310;11.728;2022-10-15T08:58:24;0.50;;;0.50;;
1294;SDS011;640;48.310;11.728;2022-10-15T09:01:03;0.50;;;0.50;;
1294;SDS011;640;48.310;11.728;2022-10-15T09:03:35;1.10;;;0.65;;
1294;SDS011;640;48.310;11.728;2022-10-15T09:06:10;0.40;;;0.40;;
1294;SDS011;640;48.310;11.728;2022-10-15T09:08:45;1.00;;;0.50;;
1294;SDS011;640;48.310;11.728;2022-10-15T09:11:18;0.50;;;0.50;;
1294;SDS011;640;48.310;11.728;2022-10-15T09:13:50;0.52;;;0.50;;
1294;SDS011;640;48.310;11.728;2022-10-15T09:16:37;0.55;;;0.55;;
1294;SDS011;640;48.310;11.728;2022-10-15T09:19:10;0.50;;;0.50;;
1294;SDS011;640;48.310;11.728;2022-10-15T09:21:42;0.85;;;0.50;;
1294;SDS011;640;48.310;11.728;2022-10-15T09:24:13;0.50;;;0.50;;
1294;SDS011;640;48.310;11.728;2022-10-15T09:26:48;0.50;;;0.50;;
1294;SDS011;640;48.310;11.728;2022-10-15T09:29:21;0.40;;;0.40;;
1294;SDS011;640;48.310;11.728;2022-10-15T09:31:54;0.40;;;0.40;;
1294;SDS011;640;48.310;11.728;2022-10-15T09:34:28;0.40;;;0.40;;
1294;SDS011;640;48.310;11.728;2022-10-15T09:37:01;0.50;;;0.47;;
1294;SDS011;640;48.310;11.728;2022-10-15T09:39:41;0.30;;;0.30;;
1294;SDS011;640;48.310;11.728;2022-10-15T09:42:19;0.40;;;0.40;;
1294;SDS011;640;48.310;11.728;2022-10-15T09:44:53;1.92;;;0.47;;
1294;SDS011;640;48.310;11.728;2022-10-15T09:47:22;1.45;;;0.40;;
1294;SDS011;640;48.310;11.728;2022-10-15T09:49:52;0.35;;;0.30;;
1294;SDS011;640;48.310;11.728;2022-10-15T09:52:25;1.10;;;0.50;;
1294;SDS011;640;48.310;11.728;2022-10-15T09:55:04;0.50;;;0.40;;
1294;SDS011;640;48.310;11.728;2022-10-15T09:57:37;0.70;;;0.40;;
1294;SDS011;640;48.310;11.728;2022-10-15T10:00:07;0.40;;;0.40;;
1294;SDS011;640;48.310;11.728;2022-10-15T10:02:37;0.68;;;0.40;;
1294;SDS011;640;48.310;11.728;2022-10-15T10:05:19;0.40;;;0.40;;
1294;SDS011;640;48.310;11.728;2022-10-15T10:08:07;0.38;;;0.38;;
1294;SDS011;640;48.310;11.728;2022-10-15T10:10:37;2.15;;;0.60;;
1294;SDS011;640;48.310;11.728;2022-10-15T10:13:20;0.77;;;0.40;;
1294;SDS011;640;48.310;11.728;2022-10-15T10:15:50;0.38;;;0.38;;
1294;SDS011;640;48.310;11.728;2022-10-15T10:18:25;0.50;;;0.50;;
1294;SDS011;640;48.310;11.728;2022-10-15T10:20:55;0.40;;;0.40;;
1294;SDS011;640;48.310;11.728;2022-10-15T10:23:29;2.50;;;0.40;;
1294;SDS011;640;48.310;11.728;2022-10-15T10:26:00;0.40;;;0.40;;
1294;SDS011;640;48.310;11.728;2022-10-15T10:28:31;0.50;;;0.43;;
1294;SDS011;640;48.310;11.728;2022-10-15T10:31:04;0.35;;;0.35;;
1294;SDS011;640;48.310;11.728;2022-10-15T10:33:34;0.40;;;0.40;;
1294;SDS011;640;48.310;11.728;2022-10-15T10:36:18;2.47;;;0.50;;
1294;SDS011;640;48.310;11.728;2022-10-15T10:38:57;1.40;;;0.60;;
1294;SDS011;640;48.310;11.728;2022-10-15T10:44:19;2.50;;;0.50;;
1294;SDS011;640;48.310;11.728;2022-10-15T10:47:01;0.70;;;0.55;;
1294;SDS011;640;48.310;11.728;2022-10-15T10:49:38;2.50;;;0.50;;
1294;SDS011;640;48.310;11.728;2022-10-15T10:52:17;1.95;;;0.47;;
1294;SDS011;640;48.310;11.728;2022-10-15T10:54:58;3.28;;;0.65;;
1294;SDS011;640;48.310;11.728;2022-10-15T10:57:33;0.40;;;0.40;;
1294;SDS011;640;48.310;11.728;2022-10-15T11:00:09;1.30;;;0.65;;
1294;SDS011;640;48.310;11.728;2022-10-15T11:02:40;0.85;;;0.60;;
1294;SDS011;640;48.310;11.728;2022-10-15T11:05:10;1.27;;;0.60;;
1294;SDS011;640;48.310;11.728;2022-10-15T11:07:40;2.00;;;0.60;;
1294;SDS011;640;48.310;11.728;2022-10-15T11:10:17;1.55;;;0.80;;
1294;SDS011;640;48.310;11.728;2022-10-15T11:12:55;0.70;;;0.60;;
1294;SDS011;640;48.310;11.728;2022-10-15T11:15:35;1.25;;;0.60;;
1294;SDS011;640;48.310;11.728;2022-10-15T11:18:14;1.10;;;0.60;;
1294;SDS011;640;48.310;11.728;2022-10-15T11:20:50;0.82;;;0.68;;
1294;SDS011;640;48.310;11.728;2022-10-15T11:26:25;1.23;;;0.50;;
1294;SDS011;640;48.310;11.728;2022-10-15T11:29:18;1.50;;;0.60;;
1294;SDS011;640;48.310;11.728;2022-10-15T11:32:02;0.60;;;0.45;;
1294;SDS011;640;48.310;11.728;2022-10-15T11:34:45;1.38;;;0.50;;
1294;SDS011;640;48.310;11.728;2022-10-15T11:37:25;0.98;;;0.50;;
1294;SDS011;640;48.310;11.728;2022-10-15T11:40:04;0.43;;;0.43;;
1294;SDS011;640;48.310;11.728;2022-10-15T11:42:45;1.02;;;0.60;;
1294;SDS011;640;48.310;11.728;2022-10-15T11:45:28;3.60;;;0.60;;
1294;SDS011;640;48.310;11.728;2022-10-15T11:48:10;1.00;;;0.50;;
1294;SDS011;640;48.310;11.728;2022-10-15T11:50:43;0.95;;;0.55;;
1294;SDS011;640;48.310;11.728;2022-10-15T11:53:27;1.15;;;0.60;;
1294;SDS011;640;48.310;11.728;2022-10-15T11:56:03;0.55;;;0.50;;
1294;SDS011;640;48.310;11.728;2022-10-15T11:58:35;1.95;;;0.50;;
1294;SDS011;640;48.310;11.728;2022-10-15T12:01:08;1.08;;;0.65;;
1294;SDS011;640;48.310;11.728;2022-10-15T12:03:40;1.27;;;0.52;;
1294;SDS011;640;48.310;11.728;2022-10-15T12:06:14;1.52;;;0.60;;
1294;SDS011;640;48.310;11.728;2022-10-15T12:08:43;1.38;;;0.50;;
1294;SDS011;640;48.310;11.728;2022-10-15T12:11:15;1.05;;;0.68;;
1294;SDS011;640;48.310;11.728;2022-10-15T12:13:53;1.25;;;0.50;;
1294;SDS011;640;48.310;11.728;2022-10-15T12:16:26;1.80;;;0.60;;
1294;SDS011;640;48.310;11.728;2022-10-15T12:19:03;1.60;;;0.60;;
1294;SDS011;640;48.310;11.728;2022-10-15T12:21:40;1.13;;;0.60;;
1294;SDS011;640;48.310;11.728;2022-10-15T12:27:21;1.63;;;0.60;;
1294;SDS011;640;48.310;11.728;2022-10-15T12:32:47;1.55;;;0.40;;
1294;SDS011;640;48.310;11.728;2022-10-15T12:35:20;2.45;;;0.57;;
1294;SDS011;640;48.310;11.728;2022-10-15T12:37:51;1.33;;;0.45;;
1294;SDS011;640;48.310;11.728;2022-10-15T12:40:24;0.68;;;0.40;;
1294;SDS011;640;48.310;11.728;2022-10-15T12:42:55;1.80;;;0.50;;
1294;SDS011;640;48.310;11.728;2022-10-15T12:45:28;2.28;;;0.60;;
1294;SDS011;640;48.310;11.728;2022-10-15T12:48:15;0.65;;;0.50;;
1294;SDS011;640;48.310;11.728;2022-10-15T12:50:48;1.75;;;0.50;;
1294;SDS011;640;48.310;11.728;2022-10-15T12:53:29;2.95;;;0.70;;
1294;SDS011;640;48.310;11.728;2022-10-15T12:56:12;1.35;;;0.45;;
1294;SDS011;640;48.310;11.728;2022-10-15T12:58:49;1.07;;;0.40;;
1294;SDS011;640;48.310;11.728;2022-10-15T13:01:29;0.65;;;0.40;;
1294;SDS011;640;48.310;11.728;2022-10-15T13:04:17;1.13;;;0.50;;
1294;SDS011;640;48.310;11.728;2022-10-15T13:06:46;2.58;;;0.60;;
1294;SDS011;640;48.310;11.728;2022-10-15T13:09:20;1.52;;;0.52;;
1294;SDS011;640;48.310;11.728;2022-10-15T13:11:53;0.47;;;0.40;;
1294;SDS011;640;48.310;11.728;2022-10-15T13:14:25;1.02;;;0.50;;
1294;SDS011;640;48.310;11.728;2022-10-15T13:16:57;1.98;;;0.52;;
1294;SDS011;640;48.310;11.728;2022-10-15T13:19:28;0.70;;;0.50;;
1294;SDS011;640;48.310;11.728;2022-10-15T13:21:59;1.63;;;0.60;;
1294;SDS011;640;48.310;11.728;2022-10-15T13:24:28;0.90;;;0.50;;
1294;SDS011;640;48.310;11.728;2022-10-15T13:26:58;1.73;;;0.52;;
1294;SDS011;640;48.310;11.728;2022-10-15T13:29:27;1.02;;;0.50;;
1294;SDS011;640;48.310;11.728;2022-10-15T13:31:55;1.17;;;0.50;;
1294;SDS011;640;48.310;11.728;2022-10-15T13:34:26;1.67;;;0.60;;
1294;SDS011;640;48.310;11.728;2022-10-15T13:36:57;1.45;;;0.52;;
1294;SDS011;640;48.310;11.728;2022-10-15T13:39:27;1.50;;;0.60;;
1294;SDS011;640;48.310;11.728;2022-10-15T13:44:35;1.45;;;0.52;;
1294;SDS011;640;48.310;11.728;2022-10-15T13:47:18;1.52;;;0.70;;
1294;SDS011;640;48.310;11.728;2022-10-15T13:49:50;1.38;;;0.60;;
1294;SDS011;640;48.310;11.728;2022-10-15T13:52:18;0.93;;;0.60;;
1294;SDS011;640;48.310;11.728;2022-10-15T13:54:47;2.63;;;0.60;;
1294;SDS011;640;48.310;11.728;2022-10-15T13:57:15;1.30;;;0.60;;
1294;SDS011;640;48.310;11.728;2022-10-15T13:59:44;0.60;;;0.50;;
1294;SDS011;640;48.310;11.728;2022-10-15T14:02:13;3.25;;;0.60;;
1294;SDS011;640;48.310;11.728;2022-10-15T14:04:43;1.33;;;0.60;;
1294;SDS011;640;48.310;11.728;2022-10-15T14:07:20;1.38;;;0.68;;
1294;SDS011;640;48.310;11.728;2022-10-15T14:09:50;1.00;;;0.80;;
1294;SDS011;640;48.310;11.728;2022-10-15T14:12:18;1.35;;;0.68;;
1294;SDS011;640;48.310;11.728;2022-10-15T14:14:46;5.25;;;1.23;;
1294;SDS011;640;48.310;11.728;2022-10-15T14:17:20;0.85;;;0.50;;
1294;SDS011;640;48.310;11.728;2022-10-15T14:19:52;1.85;;;0.70;;
1294;SDS011;640;48.310;11.728;2022-10-15T14:22:42;0.70;;;0.60;;
1294;SDS011;640;48.310;11.728;2022-10-15T14:25:15;2.83;;;0.60;;
1294;SDS011;640;48.310;11.728;2022-10-15T14:27:49;1.38;;;0.60;;
1294;SDS011;640;48.310;11.728;2022-10-15T14:30:19;1.77;;;0.70;;
1294;SDS011;640;48.310;11.728;2022-10-15T14:32:49;1.95;;;0.80;;
1294;SDS011;640;48.310;11.728;2022-10-15T14:35:23;1.52;;;0.57;;
1294;SDS011;640;48.310;11.728;2022-10-15T14:37:59;1.92;;;0.60;;
1294;SDS011;640;48.310;11.728;2022-10-15T14:40:29;0.80;;;0.70;;
1294;SDS011;640;48.310;11.728;2022-10-15T14:43:01;1.23;;;0.70;;
1294;SDS011;640;48.310;11.728;2022-10-15T14:45:32;4.75;;;0.88;;
1294;SDS011;640;48.310;11.728;2022-10-15T14:48:10;1.67;;;0.90;;
1294;SDS011;640;48.310;11.728;2022-10-15T14:50:43;1.55;;;0.70;;
1294;SDS011;640;48.310;11.728;2022-10-15T14:53:15;1.08;;;0.80;;
1294;SDS011;640;48.310;11.728;2022-10-15T14:55:46;1.95;;;1.00;;
1294;SDS011;640;48.310;11.728;2022-10-15T14:58:17;1.27;;;0.80;;
1294;SDS011;640;48.310;11.728;2022-10-15T15:00:46;1.23;;;0.80;;
1294;SDS011;640;48.310;11.728;2022-10-15T15:03:16;1.20;;;1.00;;
1294;SDS011;640;48.310;11.728;2022-10-15T15:05:47;1.25;;;0.77;;
1294;SDS011;640;48.310;11.728;2022-10-15T15:08:18;2.75;;;0.90;;
1294;SDS011;640;48.310;11.728;2022-10-15T15:10:47;3.22;;;0.98;;
1294;SDS011;640;48.310;11.728;2022-10-15T15:13:17;1.70;;;0.80;;
1294;SDS011;640;48.310;11.728;2022-10-15T15:15:47;1.88;;;0.90;;
1294;SDS011;640;48.310;11.728;2022-10-15T15:18:15;2.97;;;0.90;;
1294;SDS011;640;48.310;11.728;2022-10-15T15:20:44;2.10;;;1.10;;
1294;SDS011;640;48.310;11.728;2022-10-15T15:23:16;1.35;;;0.77;;
1294;SDS011;640;48.310;11.728;2022-10-15T15:25:47;2.08;;;0.90;;
1294;SDS011;640;48.310;11.728;2022-10-15T15:28:16;4.50;;;1.10;;
1294;SDS011;640;48.310;11.728;2022-10-15T15:30:49;2.88;;;1.00;;
1294;SDS011;640;48.310;11.728;2022-10-15T15:33:18;4.35;;;1.25;;
1294;SDS011;640;48.310;11.728;2022-10-15T15:35:47;3.03;;;1.10;;
1294;SDS011;640;48.310;11.728;2022-10-15T15:38:18;1.23;;;0.85;;
1294;SDS011;640;48.310;11.728;2022-10-15T15:40:48;1.08;;;0.77;;
1294;SDS011;640;48.310;11.728;2022-10-15T15:43:17;1.10;;;0.80;;
1294;SDS011;640;48.310;11.728;2022-10-15T15:45:46;1.42;;;0.85;;
1294;SDS011;640;48.310;11.728;2022-10-15T15:48:14;2.53;;;0.93;;
1294;SDS011;640;48.310;11.728;2022-10-15T15:50:43;1.88;;;0.82;;
1294;SDS011;640;48.310;11.728;2022-10-15T15:53:11;1.58;;;0.90;;
1294;SDS011;640;48.310;11.728;2022-10-15T15:55:41;1.75;;;0.90;;
1294;SDS011;640;48.310;11.728;2022-10-15T15:58:09;1.45;;;0.82;;
1294;SDS011;640;48.310;11.728;2022-10-15T16:00:38;2.25;;;0.95;;
1294;SDS011;640;48.310;11.728;2022-10-15T16:03:06;1.27;;;0.93;;